createdAt,value
2019-05-25T00:02:20.203Z,15.80
2019-05-25T00:04:45.460Z,15.80
2019-05-25T00:07:10.563Z,15.70
2019-05-25T00:09:35.650Z,15.60
2019-05-25T00:12:01.043Z,15.60
2019-05-25T00:14:26.207Z,15.50
2019-05-25T00:16:51.325Z,15.40
2019-05-25T00:19:18.990Z,15.40
2019-05-25T00:21:44.287Z,15.40
2019-05-25T00:24:12.542Z,15.30
2019-05-25T00:26:36.119Z,15.20
2019-05-25T00:29:01.338Z,15.20
2019-05-25T00:31:27.646Z,15.10
2019-05-25T00:33:53.094Z,15.10
2019-05-25T00:36:18.275Z,15.00
2019-05-25T00:38:43.366Z,15.00
2019-05-25T00:41:08.458Z,14.90
2019-05-25T00:43:34.753Z,14.90
2019-05-25T00:45:59.866Z,14.80
2019-05-25T00:48:25.239Z,14.80
2019-05-25T00:50:50.560Z,14.70
2019-05-25T00:53:15.743Z,14.70
2019-05-25T00:55:40.969Z,14.60
2019-05-25T00:58:06.812Z,14.50
2019-05-25T01:00:32.007Z,14.50
2019-05-25T01:02:57.197Z,14.40
2019-05-25T01:05:22.496Z,14.40
2019-05-25T01:07:47.710Z,14.30
2019-05-25T01:10:14.066Z,14.30
2019-05-25T01:12:39.166Z,14.20
2019-05-25T01:15:05.527Z,14.20
2019-05-25T01:17:30.694Z,14.10
2019-05-25T01:19:55.806Z,14.00
2019-05-25T01:22:20.914Z,14.00
2019-05-25T01:24:46.694Z,13.90
2019-05-25T01:27:11.832Z,13.80
2019-05-25T01:29:37.906Z,13.80
2019-05-25T01:32:04.005Z,13.70
2019-05-25T01:34:29.099Z,13.60
2019-05-25T01:36:54.213Z,13.60
2019-05-25T01:39:19.334Z,13.60
2019-05-25T01:41:44.947Z,13.60
2019-05-25T01:44:10.073Z,13.50
2019-05-25T01:46:35.163Z,13.50
2019-05-25T01:49:00.242Z,13.40
2019-05-25T01:51:25.363Z,13.40
2019-05-25T01:53:50.569Z,13.40
2019-05-25T01:56:15.806Z,13.30
2019-05-25T01:58:40.899Z,13.20
2019-05-25T02:01:06.327Z,13.20
2019-05-25T02:03:31.563Z,13.20
2019-05-25T02:05:56.653Z,13.20
2019-05-25T02:08:21.750Z,13.10
2019-05-25T02:10:46.854Z,13.10
2019-05-25T02:13:11.951Z,13.00
2019-05-25T02:15:37.171Z,13.00
2019-05-25T02:18:02.283Z,12.90
2019-05-25T02:20:27.373Z,12.90
2019-05-25T02:22:52.691Z,12.80
2019-05-25T02:25:19.195Z,12.80
2019-05-25T02:27:45.263Z,12.70
2019-05-25T02:30:12.565Z,12.70
2019-05-25T02:32:37.678Z,12.60
2019-05-25T02:35:02.806Z,12.60
2019-05-25T02:37:28.211Z,12.60
2019-05-25T02:39:53.445Z,12.50
2019-05-25T02:42:18.559Z,12.50
2019-05-25T02:44:43.651Z,12.40
2019-05-25T02:47:08.762Z,12.40
2019-05-25T02:49:33.849Z,12.40
2019-05-25T02:51:59.263Z,12.30
2019-05-25T02:54:24.596Z,12.30
2019-05-25T02:56:49.685Z,12.20
2019-05-25T02:59:14.875Z,12.20
2019-05-25T03:01:40.250Z,12.20
2019-05-25T03:04:05.489Z,12.10
2019-05-25T03:06:31.085Z,12.10
2019-05-25T03:08:57.263Z,12.10
2019-05-25T03:11:22.364Z,12.00
2019-05-25T03:13:48.054Z,12.00
2019-05-25T03:16:13.214Z,12.00
2019-05-25T03:18:38.568Z,11.90
2019-05-25T03:21:03.651Z,11.90
2019-05-25T03:23:28.772Z,11.90
2019-05-25T03:25:53.882Z,11.80
2019-05-25T03:28:19.194Z,11.80
2019-05-25T03:30:44.315Z,11.80
2019-05-25T03:33:09.421Z,11.70
2019-05-25T03:35:34.638Z,11.70
2019-05-25T03:37:59.736Z,11.70
2019-05-25T03:40:24.823Z,11.70
2019-05-25T03:42:49.938Z,11.70
2019-05-25T03:45:15.147Z,11.70
2019-05-25T03:47:40.256Z,11.70
2019-05-25T03:50:05.693Z,11.70
2019-05-25T03:52:30.796Z,11.70
2019-05-25T03:54:55.973Z,11.70
2019-05-25T03:57:21.115Z,11.70
2019-05-25T03:59:46.420Z,11.70
2019-05-25T04:02:12.360Z,11.60
2019-05-25T04:04:38.151Z,11.70
2019-05-25T04:07:03.282Z,11.70
2019-05-25T04:09:28.348Z,11.70
2019-05-25T04:11:54.742Z,11.70
2019-05-25T04:14:19.836Z,11.60
2019-05-25T04:16:44.936Z,11.70
2019-05-25T04:19:11.528Z,11.70
2019-05-25T04:21:36.642Z,11.70
2019-05-25T04:24:01.754Z,11.70
2019-05-25T04:26:27.620Z,11.80
2019-05-25T04:28:52.846Z,11.80
2019-05-25T04:31:17.971Z,11.80
2019-05-25T04:33:43.065Z,11.80
2019-05-25T04:36:08.287Z,11.90
2019-05-25T04:38:33.382Z,11.90
2019-05-25T04:40:58.480Z,12.00
2019-05-25T04:43:23.587Z,12.00
2019-05-25T04:45:48.691Z,12.00
2019-05-25T04:48:14.898Z,12.10
2019-05-25T04:50:39.986Z,12.20
2019-05-25T04:53:05.626Z,12.20
2019-05-25T04:55:31.198Z,12.20
2019-05-25T04:57:56.547Z,12.30
2019-05-25T05:00:21.907Z,12.30
2019-05-25T05:02:47.034Z,12.40
2019-05-25T05:05:13.682Z,12.40
2019-05-25T05:07:38.802Z,12.50
2019-05-25T05:10:04.282Z,12.50
2019-05-25T05:12:29.377Z,12.50
2019-05-25T05:14:56.489Z,12.50
2019-05-25T05:17:21.212Z,12.60
2019-05-25T05:19:46.451Z,12.70
2019-05-25T05:22:11.534Z,12.70
2019-05-25T05:24:36.645Z,12.80
2019-05-25T05:27:01.776Z,12.80
2019-05-25T05:29:26.871Z,13.00
2019-05-25T05:31:51.994Z,13.00
2019-05-25T05:34:17.102Z,13.10
2019-05-25T05:36:42.622Z,13.10
2019-05-25T05:39:08.501Z,13.20
2019-05-25T05:41:35.186Z,13.30
2019-05-25T05:44:01.873Z,13.40
2019-05-25T05:46:29.082Z,13.60
2019-05-25T05:48:54.848Z,13.60
2019-05-25T05:51:21.592Z,13.80
2019-05-25T05:53:47.705Z,13.90
2019-05-25T05:56:12.862Z,14.20
2019-05-25T05:58:37.982Z,14.40
2019-05-25T06:01:04.111Z,14.60
2019-05-25T06:03:29.236Z,14.90
2019-05-25T06:05:54.562Z,15.00
2019-05-25T06:08:19.765Z,15.60
2019-05-25T06:10:44.871Z,16.00
2019-05-25T06:13:09.966Z,16.20
2019-05-25T06:15:35.079Z,16.50
2019-05-25T06:18:00.175Z,16.90
2019-05-25T06:20:25.886Z,17.50
2019-05-25T06:22:51.000Z,17.60
2019-05-25T06:25:16.082Z,17.90
2019-05-25T06:27:41.270Z,18.00
2019-05-25T06:30:07.607Z,18.20
2019-05-25T06:32:32.718Z,18.10
2019-05-25T06:34:57.807Z,18.30
2019-05-25T06:37:23.019Z,18.30
2019-05-25T06:39:49.092Z,18.30
2019-05-25T06:42:14.127Z,18.10
2019-05-25T06:44:39.981Z,17.90
2019-05-25T06:47:05.174Z,17.60
2019-05-25T06:49:30.319Z,17.50
2019-05-25T06:51:55.413Z,17.40
2019-05-25T06:54:20.639Z,17.20
2019-05-25T06:56:45.995Z,17.30
2019-05-25T06:59:11.087Z,17.20
2019-05-25T07:01:36.200Z,17.20
2019-05-25T07:04:01.303Z,17.10
2019-05-25T07:06:26.522Z,17.10
2019-05-25T07:08:51.613Z,17.10
2019-05-25T07:11:16.754Z,17.20
2019-05-25T07:13:41.918Z,17.10
2019-05-25T07:16:07.041Z,17.00
2019-05-25T07:18:35.243Z,17.10
2019-05-25T07:20:59.921Z,17.00
2019-05-25T07:23:25.007Z,16.90
2019-05-25T07:25:50.096Z,16.80
2019-05-25T07:28:17.823Z,16.80
2019-05-25T07:30:46.441Z,16.70
2019-05-25T07:33:09.757Z,16.70
2019-05-25T07:35:34.826Z,16.70
2019-05-25T07:37:59.960Z,16.60
2019-05-25T07:40:25.050Z,16.60
2019-05-25T07:42:50.174Z,16.60
2019-05-25T07:45:15.482Z,16.70
2019-05-25T07:47:40.613Z,16.70
2019-05-25T07:50:06.630Z,16.80
2019-05-25T07:52:32.692Z,16.80
2019-05-25T07:54:57.806Z,16.80
2019-05-25T07:57:22.947Z,16.80
2019-05-25T07:59:48.079Z,16.70
2019-05-25T08:02:13.183Z,16.70
2019-05-25T08:04:38.290Z,16.80
2019-05-25T08:07:03.456Z,16.70
2019-05-25T08:09:28.670Z,16.70
2019-05-25T08:11:55.284Z,16.60
2019-05-25T08:14:20.361Z,16.40
2019-05-25T08:16:45.757Z,16.40
2019-05-25T08:19:10.858Z,16.30
2019-05-25T08:21:36.055Z,16.40
2019-05-25T08:24:02.534Z,16.30
2019-05-25T08:26:27.698Z,16.30
2019-05-25T08:28:52.795Z,16.20
2019-05-25T08:31:17.906Z,16.10
2019-05-25T08:33:43.022Z,16.10
2019-05-25T08:36:08.128Z,16.00
2019-05-25T08:38:33.330Z,16.00
2019-05-25T08:40:58.438Z,16.00
2019-05-25T08:43:23.665Z,16.00
2019-05-25T08:45:48.790Z,16.10
2019-05-25T08:48:13.941Z,16.10
2019-05-25T08:50:39.058Z,16.00
2019-05-25T08:53:04.394Z,16.10
2019-05-25T08:55:29.528Z,16.10
2019-05-25T08:57:55.081Z,16.10
2019-05-25T09:00:21.657Z,16.20
2019-05-25T09:02:46.808Z,16.30
2019-05-25T09:05:11.999Z,16.30
2019-05-25T09:07:37.108Z,16.40
2019-05-25T09:10:02.204Z,16.60
2019-05-25T09:12:27.399Z,16.60
2019-05-25T09:14:52.776Z,16.80
2019-05-25T09:17:17.954Z,16.80
2019-05-25T09:19:43.169Z,16.90
2019-05-25T09:22:08.389Z,16.90
2019-05-25T09:24:33.522Z,17.10
2019-05-25T09:26:58.614Z,17.10
2019-05-25T09:29:24.790Z,17.10
2019-05-25T09:31:49.890Z,17.10
2019-05-25T09:34:15.118Z,17.20
2019-05-25T09:36:40.230Z,17.10
2019-05-25T09:39:07.750Z,17.10
2019-05-25T09:41:32.890Z,17.20
2019-05-25T09:43:58.022Z,17.30
2019-05-25T09:46:23.157Z,17.30
2019-05-25T09:48:48.278Z,17.40
2019-05-25T09:51:16.363Z,17.30
2019-05-25T09:53:41.110Z,17.20
2019-05-25T09:56:06.359Z,17.60
2019-05-25T09:58:32.606Z,17.70
2019-05-25T10:00:57.707Z,17.90
2019-05-25T10:03:22.822Z,18.10
2019-05-25T10:05:47.938Z,18.20
2019-05-25T10:08:13.084Z,18.20
2019-05-25T10:10:38.166Z,18.40
2019-05-25T10:13:03.271Z,18.40
2019-05-25T10:15:28.539Z,18.50
2019-05-25T10:17:53.627Z,18.60
2019-05-25T10:20:19.481Z,18.60
2019-05-25T10:22:44.536Z,18.70
2019-05-25T10:25:09.867Z,18.50
2019-05-25T10:27:34.958Z,18.40
2019-05-25T10:30:00.141Z,18.50
2019-05-25T10:32:25.218Z,18.60
2019-05-25T10:34:50.314Z,18.60
2019-05-25T10:37:16.878Z,18.80
2019-05-25T10:39:42.231Z,18.70
2019-05-25T10:42:09.990Z,18.70
2019-05-25T10:44:35.098Z,18.80
2019-05-25T10:47:01.580Z,18.90
2019-05-25T10:49:26.671Z,19.00
2019-05-25T10:51:52.739Z,19.10
2019-05-25T10:54:17.862Z,18.90
2019-05-25T10:56:42.967Z,18.90
2019-05-25T10:59:08.221Z,19.10
2019-05-25T11:01:33.310Z,19.30
2019-05-25T11:03:58.429Z,19.30
2019-05-25T11:06:23.535Z,19.40
2019-05-25T11:08:48.675Z,19.40
2019-05-25T11:11:13.815Z,19.40
2019-05-25T11:13:38.862Z,19.50
2019-05-25T11:16:03.998Z,19.60
2019-05-25T11:18:29.118Z,19.60
2019-05-25T11:20:54.245Z,19.50
2019-05-25T11:23:20.363Z,19.60
2019-05-25T11:25:45.525Z,19.60
2019-05-25T11:28:10.613Z,19.50
2019-05-25T11:30:36.003Z,19.60
2019-05-25T11:33:01.141Z,19.60
2019-05-25T11:35:26.230Z,19.40
2019-05-25T11:37:51.346Z,19.40
2019-05-25T11:40:17.899Z,19.50
2019-05-25T11:42:43.026Z,19.70
2019-05-25T11:45:08.768Z,19.80
2019-05-25T11:47:34.142Z,19.70
2019-05-25T11:50:00.910Z,19.80
2019-05-25T11:52:26.001Z,19.90
2019-05-25T11:54:51.136Z,19.80
2019-05-25T11:57:16.227Z,19.70
2019-05-25T11:59:41.457Z,19.50
2019-05-25T12:02:06.661Z,19.50
2019-05-25T12:04:32.081Z,19.60
2019-05-25T12:06:57.177Z,19.60
2019-05-25T12:09:22.278Z,19.60
2019-05-25T12:11:47.396Z,19.40
2019-05-25T12:14:12.494Z,19.40
2019-05-25T12:16:37.625Z,19.50
2019-05-25T12:19:02.705Z,19.40
2019-05-25T12:21:27.928Z,19.10
2019-05-25T12:23:53.019Z,19.00
2019-05-25T12:26:18.130Z,18.90
2019-05-25T12:28:43.242Z,18.90
2019-05-25T12:31:08.346Z,19.00
2019-05-25T12:33:33.477Z,19.10
2019-05-25T12:35:58.583Z,18.90
2019-05-25T12:38:24.006Z,18.90
2019-05-25T12:40:53.592Z,18.90
2019-05-25T12:43:15.858Z,19.10
2019-05-25T12:45:42.264Z,19.10
2019-05-25T12:48:07.518Z,19.30
2019-05-25T12:50:32.640Z,19.20
2019-05-25T12:52:57.728Z,19.20
2019-05-25T12:55:22.870Z,19.30
2019-05-25T12:57:51.220Z,19.20
2019-05-25T13:00:16.795Z,19.20
2019-05-25T13:02:42.099Z,19.10
2019-05-25T13:05:07.286Z,19.10
2019-05-25T13:07:32.398Z,19.00
2019-05-25T13:09:57.719Z,19.10
2019-05-25T13:12:22.915Z,19.10
2019-05-25T13:14:48.086Z,19.20
2019-05-25T13:17:13.193Z,19.30
2019-05-25T13:19:38.620Z,19.40
2019-05-25T13:22:03.707Z,19.40
2019-05-25T13:24:28.823Z,19.30
2019-05-25T13:26:53.917Z,19.10
2019-05-25T13:29:19.013Z,19.10
2019-05-25T13:31:46.522Z,19.10
2019-05-25T13:34:13.644Z,19.00
2019-05-25T13:36:39.131Z,19.10
2019-05-25T13:39:05.838Z,19.10
2019-05-25T13:41:30.973Z,19.20
2019-05-25T13:43:56.054Z,19.20
2019-05-25T13:46:21.157Z,19.10
2019-05-25T13:48:46.274Z,19.30
2019-05-25T13:51:11.374Z,19.30
2019-05-25T13:53:36.749Z,19.30
2019-05-25T13:56:01.842Z,19.10
2019-05-25T13:58:26.926Z,19.10
2019-05-25T14:00:52.357Z,19.10
2019-05-25T14:03:17.438Z,19.20
2019-05-25T14:05:43.649Z,19.10
2019-05-25T14:08:09.015Z,19.00
2019-05-25T14:10:34.237Z,19.10
2019-05-25T14:12:59.398Z,19.20
2019-05-25T14:15:24.573Z,19.30
2019-05-25T14:17:50.313Z,19.40
2019-05-25T14:20:15.397Z,19.30
2019-05-25T14:22:40.486Z,19.20
2019-05-25T14:25:06.011Z,19.30
2019-05-25T14:27:31.895Z,19.40
2019-05-25T14:29:57.087Z,19.30
2019-05-25T14:32:22.166Z,19.20
2019-05-25T14:34:47.258Z,19.40
2019-05-25T14:37:12.402Z,19.20
2019-05-25T14:39:37.502Z,19.10
2019-05-25T14:42:02.618Z,19.00
2019-05-25T14:44:27.705Z,19.20
2019-05-25T14:46:52.793Z,19.20
2019-05-25T14:49:18.097Z,19.10
2019-05-25T14:51:43.194Z,19.30
2019-05-25T14:54:09.258Z,19.40
2019-05-25T14:56:34.375Z,19.30
2019-05-25T14:58:59.459Z,19.10
2019-05-25T15:01:24.752Z,19.20
2019-05-25T15:03:49.842Z,19.20
2019-05-25T15:06:14.947Z,19.30
2019-05-25T15:08:40.066Z,19.40
2019-05-25T15:11:06.094Z,19.30
2019-05-25T15:13:31.202Z,19.20
2019-05-25T15:15:56.299Z,19.30
2019-05-25T15:18:21.388Z,19.10
2019-05-25T15:20:46.507Z,18.90
2019-05-25T15:23:12.565Z,18.90
2019-05-25T15:25:37.681Z,19.00
2019-05-25T15:28:02.975Z,18.90
2019-05-25T15:30:28.144Z,18.80
2019-05-25T15:32:53.221Z,18.80
2019-05-25T15:35:20.311Z,18.90
2019-05-25T15:37:45.368Z,18.90
2019-05-25T15:40:11.965Z,19.10
2019-05-25T15:42:37.081Z,19.00
2019-05-25T15:45:02.166Z,18.80
2019-05-25T15:47:27.280Z,18.90
2019-05-25T15:49:52.609Z,18.80
2019-05-25T15:52:17.738Z,18.80
2019-05-25T15:54:43.883Z,18.80
2019-05-25T15:57:08.978Z,18.80
2019-05-25T15:59:34.086Z,18.70
2019-05-25T16:01:59.229Z,18.70
2019-05-25T16:04:24.344Z,18.60
2019-05-25T16:06:49.719Z,18.70
2019-05-25T16:09:15.320Z,18.50
2019-05-25T16:11:40.681Z,18.60
2019-05-25T16:14:07.810Z,18.20
2019-05-25T16:16:32.536Z,18.30
2019-05-25T16:18:57.623Z,18.40
2019-05-25T16:21:22.747Z,18.40
2019-05-25T16:23:47.848Z,18.40
2019-05-25T16:26:14.046Z,18.40
2019-05-25T16:28:39.135Z,18.30
2019-05-25T16:31:04.770Z,18.20
2019-05-25T16:33:30.138Z,18.10
2019-05-25T16:35:57.950Z,18.20
2019-05-25T16:38:22.062Z,18.20
2019-05-25T16:40:47.381Z,18.20
2019-05-25T16:43:12.469Z,18.30
2019-05-25T16:45:37.974Z,18.30
2019-05-25T16:48:03.083Z,18.30
2019-05-25T16:50:28.663Z,18.40
2019-05-25T16:52:54.111Z,18.30
2019-05-25T16:55:19.604Z,18.20
2019-05-25T16:57:44.713Z,18.20
2019-05-25T17:00:11.725Z,18.10
2019-05-25T17:02:36.844Z,18.10
2019-05-25T17:05:02.232Z,18.00
2019-05-25T17:07:27.312Z,18.00
2019-05-25T17:09:52.638Z,18.00
2019-05-25T17:12:17.758Z,18.00
2019-05-25T17:14:42.869Z,18.00
2019-05-25T17:17:08.006Z,18.00
2019-05-25T17:19:34.184Z,17.90
2019-05-25T17:21:59.258Z,17.90
2019-05-25T17:24:24.384Z,17.80
2019-05-25T17:26:49.472Z,17.80
2019-05-25T17:29:15.575Z,17.70
2019-05-25T17:31:40.665Z,17.70
2019-05-25T17:34:05.763Z,17.70
2019-05-25T17:36:30.862Z,17.70
2019-05-25T17:38:55.954Z,17.70
2019-05-25T17:41:21.187Z,17.70
2019-05-25T17:43:46.278Z,17.70
2019-05-25T17:46:11.371Z,17.60
2019-05-25T17:48:36.483Z,17.60
2019-05-25T17:51:01.569Z,17.50
2019-05-25T17:53:26.679Z,17.40
2019-05-25T17:55:51.775Z,17.40
2019-05-25T17:58:17.356Z,17.40
2019-05-25T18:00:45.775Z,17.40
2019-05-25T18:03:10.898Z,17.50
2019-05-25T18:05:36.065Z,17.50
2019-05-25T18:08:01.206Z,17.40
2019-05-25T18:10:26.806Z,17.40
2019-05-25T18:12:52.290Z,17.30
2019-05-25T18:15:17.566Z,17.30
2019-05-25T18:17:42.653Z,17.30
2019-05-25T18:20:07.810Z,17.30
2019-05-25T18:22:32.995Z,17.30
2019-05-25T18:24:59.176Z,17.20
2019-05-25T18:27:24.285Z,17.20
2019-05-25T18:29:49.454Z,17.10
2019-05-25T18:32:14.610Z,17.10
2019-05-25T18:34:39.690Z,17.10
2019-05-25T18:37:05.726Z,17.00
2019-05-25T18:39:30.856Z,17.00
2019-05-25T18:41:55.965Z,16.90
2019-05-25T18:44:21.154Z,16.80
2019-05-25T18:46:46.253Z,16.80
2019-05-25T18:49:11.656Z,16.70
2019-05-25T18:51:37.834Z,16.60
2019-05-25T18:54:02.938Z,16.60
2019-05-25T18:56:28.260Z,16.40
2019-05-25T18:58:53.341Z,16.40
2019-05-25T19:01:18.554Z,16.30
2019-05-25T19:03:43.806Z,16.20
2019-05-25T19:06:08.887Z,16.10
2019-05-25T19:08:34.258Z,16.00
2019-05-25T19:10:59.627Z,15.90
2019-05-25T19:13:24.754Z,15.90
2019-05-25T19:15:49.858Z,15.80
2019-05-25T19:18:15.989Z,15.70
2019-05-25T19:20:41.136Z,15.60
2019-05-25T19:23:06.585Z,15.50
2019-05-25T19:25:31.706Z,15.40
2019-05-25T19:27:56.934Z,15.30
2019-05-25T19:30:22.034Z,15.20
2019-05-25T19:32:48.122Z,15.10
2019-05-25T19:35:13.602Z,15.00
2019-05-25T19:37:42.023Z,14.90
2019-05-25T19:40:09.160Z,14.80
2019-05-25T19:42:33.487Z,14.80
2019-05-25T19:44:58.590Z,14.70
2019-05-25T19:47:23.718Z,14.60
2019-05-25T19:49:48.806Z,14.50
2019-05-25T19:52:14.938Z,14.40
2019-05-25T19:54:40.032Z,14.30
2019-05-25T19:57:05.333Z,14.20
2019-05-25T19:59:30.443Z,14.10
2019-05-25T20:01:55.538Z,14.00
2019-05-25T20:04:20.842Z,14.00
2019-05-25T20:06:45.943Z,13.90
2019-05-25T20:09:11.034Z,13.80
2019-05-25T20:11:36.153Z,13.80
2019-05-25T20:14:01.274Z,13.60
2019-05-25T20:16:26.438Z,13.60
2019-05-25T20:18:51.553Z,13.50
2019-05-25T20:21:16.950Z,13.40
2019-05-25T20:23:42.103Z,13.30
2019-05-25T20:26:07.242Z,13.30
2019-05-25T20:28:32.387Z,13.20
2019-05-25T20:31:04.847Z,13.20
2019-05-25T20:33:29.942Z,13.10
2019-05-25T20:35:55.064Z,13.00
2019-05-25T20:38:20.163Z,13.00
2019-05-25T20:40:45.477Z,12.90
2019-05-25T20:43:10.805Z,12.90
2019-05-25T20:45:35.895Z,12.80
2019-05-25T20:48:01.978Z,12.70
2019-05-25T20:50:27.112Z,12.70
2019-05-25T20:52:52.298Z,12.70
2019-05-25T20:55:17.437Z,12.60
2019-05-25T20:57:42.544Z,12.50
2019-05-25T21:00:07.727Z,12.50
2019-05-25T21:02:33.093Z,12.40
2019-05-25T21:04:58.378Z,12.40
2019-05-25T21:07:23.529Z,12.30
2019-05-25T21:09:48.632Z,12.30
2019-05-25T21:12:13.841Z,12.20
2019-05-25T21:14:38.979Z,12.20
2019-05-25T21:17:04.139Z,12.10
2019-05-25T21:19:29.294Z,12.10
2019-05-25T21:21:54.390Z,12.10
2019-05-25T21:24:19.779Z,12.00
2019-05-25T21:26:44.901Z,12.00
2019-05-25T21:29:10.006Z,11.90
2019-05-25T21:31:35.155Z,11.90
2019-05-25T21:34:00.251Z,11.80
2019-05-25T21:36:25.582Z,11.80
2019-05-25T21:38:50.709Z,11.80
2019-05-25T21:41:15.834Z,11.70
2019-05-25T21:43:40.979Z,11.70
2019-05-25T21:46:06.113Z,11.60
2019-05-25T21:48:31.202Z,11.60
2019-05-25T21:50:56.326Z,11.50
2019-05-25T21:53:21.437Z,11.50
2019-05-25T21:55:46.650Z,11.50
2019-05-25T21:58:11.761Z,11.40
2019-05-25T22:00:39.106Z,11.40
2019-05-25T22:03:04.392Z,11.40
2019-05-25T22:05:30.927Z,11.40
2019-05-25T22:07:56.290Z,11.30
2019-05-25T22:10:21.399Z,11.30
2019-05-25T22:12:46.502Z,11.20
2019-05-25T22:15:11.754Z,11.20
2019-05-25T22:17:36.852Z,11.20
2019-05-25T22:20:01.969Z,11.20
2019-05-25T22:22:27.063Z,11.20
2019-05-25T22:24:52.166Z,11.10
2019-05-25T22:27:17.562Z,11.10
2019-05-25T22:29:42.682Z,11.10
2019-05-25T22:32:07.813Z,11.10
2019-05-25T22:34:32.911Z,11.10
2019-05-25T22:36:58.030Z,11.10
2019-05-25T22:39:24.253Z,11.10
2019-05-25T22:41:49.430Z,11.00
2019-05-25T22:44:15.050Z,11.00
2019-05-25T22:46:40.156Z,11.00
2019-05-25T22:49:05.309Z,11.00
2019-05-25T22:51:30.406Z,11.00
2019-05-25T22:53:55.650Z,11.00
2019-05-25T22:56:20.746Z,11.00
2019-05-25T22:58:45.914Z,11.00
2019-05-25T23:01:11.052Z,10.90
2019-05-25T23:03:36.425Z,10.90
2019-05-25T23:06:01.624Z,10.90
2019-05-25T23:08:26.722Z,10.90
2019-05-25T23:10:51.953Z,10.80
2019-05-25T23:13:17.045Z,10.80
2019-05-25T23:15:42.152Z,10.80
2019-05-25T23:18:07.274Z,10.70
2019-05-25T23:20:32.374Z,10.70
2019-05-25T23:22:57.509Z,10.70
2019-05-25T23:25:22.661Z,10.70
2019-05-25T23:27:47.778Z,10.70
2019-05-25T23:30:12.910Z,10.70
2019-05-25T23:32:38.014Z,10.70
2019-05-25T23:35:04.330Z,10.70
2019-05-25T23:37:29.751Z,10.70
2019-05-25T23:39:54.902Z,10.70
2019-05-25T23:42:20.003Z,10.70
2019-05-25T23:44:45.207Z,10.80
2019-05-25T23:47:10.300Z,10.80
2019-05-25T23:49:35.395Z,10.80
2019-05-25T23:52:00.513Z,10.80
2019-05-25T23:54:25.611Z,10.80
2019-05-25T23:56:50.748Z,10.80
2019-05-25T23:59:15.910Z,10.80
